Time;durP1;ratioP1;P1;durP2;ratioP2;P2;SDS_P1;SDS_P2;PMS_P1;PMS_P2;Temp;Humidity;BMP_temperature;BMP_pressure;BME280_temperature;BME280_humidity;BME280_pressure;Samples;Min_cycle;Max_cycle;Signal;HPM_P1;HPM_P2
2023/03/19 00:02:10;;;;;;;1.40;0.90;;;12.30;99.90;;;;;;5054148;28;20421;-56
2023/03/19 00:04:37;;;;;;;1.00;0.80;;;12.30;99.90;;;;;;5054253;28;20861;-53
2023/03/19 00:07:04;;;;;;;1.77;0.88;;;12.20;99.90;;;;;;5054075;28;20456;-54
2023/03/19 00:09:32;;;;;;;2.35;0.90;;;12.20;99.90;;;;;;5029982;28;20452;-53
2023/03/19 00:11:59;;;;;;;1.40;0.80;;;12.20;99.90;;;;;;5015071;28;20421;-54
2023/03/19 00:14:26;;;;;;;1.90;0.70;;;12.20;99.90;;;;;;5015755;28;20490;-53
2023/03/19 00:16:53;;;;;;;1.70;0.80;;;12.30;99.90;;;;;;5015716;28;20429;-56
2023/03/19 00:19:21;;;;;;;1.20;0.80;;;12.30;99.90;;;;;;5043914;28;21006;-54
2023/03/19 00:21:48;;;;;;;1.42;0.80;;;12.30;99.90;;;;;;5057120;28;20429;-56
2023/03/19 00:24:16;;;;;;;2.08;0.90;;;12.40;99.90;;;;;;5057186;28;20429;-55
2023/03/19 00:26:44;;;;;;;2.67;0.80;;;12.30;99.90;;;;;;5049251;28;20436;-51
2023/03/19 00:29:11;;;;;;;2.40;0.90;;;12.20;99.90;;;;;;5053228;28;20440;-56
2023/03/19 00:31:40;;;;;;;1.80;1.00;;;12.20;99.90;;;;;;5056218;28;20430;-53
2023/03/19 00:34:08;;;;;;;1.60;0.82;;;12.20;99.90;;;;;;5056529;28;20440;-54
2023/03/19 00:36:35;;;;;;;2.00;0.90;;;12.20;99.90;;;;;;5047430;28;20812;-55
2023/03/19 00:39:02;;;;;;;1.60;0.80;;;12.30;99.90;;;;;;5055939;28;20421;-56
2023/03/19 00:41:29;;;;;;;1.60;0.90;;;12.30;99.90;;;;;;5056850;28;20425;-56
2023/03/19 00:43:58;;;;;;;1.50;0.77;;;12.30;99.90;;;;;;5056085;28;20421;-53
2023/03/19 00:46:26;;;;;;;1.70;0.90;;;12.20;99.90;;;;;;5042504;28;20459;-55
2023/03/19 00:48:54;;;;;;;3.15;0.90;;;12.20;99.90;;;;;;5056660;28;20500;-56
2023/03/19 00:51:22;;;;;;;1.10;0.80;;;12.20;99.90;;;;;;5056009;28;20782;-55
2023/03/19 00:53:50;;;;;;;1.73;0.90;;;12.20;99.90;;;;;;5054249;28;20441;-54
2023/03/19 00:56:18;;;;;;;2.42;0.80;;;12.20;99.90;;;;;;5045812;28;20441;-56
2023/03/19 00:58:45;;;;;;;2.00;0.90;;;12.30;99.90;;;;;;5056011;28;20425;-56
2023/03/19 01:01:16;;;;;;;1.45;0.82;;;12.30;99.90;;;;;;5056012;28;20841;-55
2023/03/19 01:03:44;;;;;;;2.00;1.00;;;12.40;99.90;;;;;;5045390;28;20463;-55
2023/03/19 01:06:11;;;;;;;1.67;1.00;;;12.40;99.90;;;;;;5055509;28;20429;-55
2023/03/19 01:08:38;;;;;;;2.53;1.10;;;12.40;99.90;;;;;;5056327;28;20845;-54
2023/03/19 01:11:07;;;;;;;2.15;1.30;;;12.40;99.90;;;;;;5056281;28;20429;-56
2023/03/19 01:13:34;;;;;;;1.92;1.10;;;12.40;99.90;;;;;;5044222;28;20452;-55
2023/03/19 01:16:01;;;;;;;2.35;1.30;;;12.40;99.90;;;;;;5056175;28;20760;-56
2023/03/19 01:18:30;;;;;;;2.42;0.90;;;12.40;99.90;;;;;;5055385;28;20749;-56
2023/03/19 01:20:57;;;;;;;2.38;1.00;;;12.30;99.90;;;;;;5056093;28;20460;-55
2023/03/19 01:23:24;;;;;;;3.50;1.10;;;12.30;99.90;;;;;;5041927;28;20429;-55
2023/03/19 01:25:51;;;;;;;2.30;1.08;;;12.20;99.90;;;;;;5054853;28;20425;-55
2023/03/19 01:28:19;;;;;;;2.20;1.20;;;12.30;99.90;;;;;;5055745;28;20421;-53
2023/03/19 01:30:46;;;;;;;1.50;0.90;;;12.30;99.90;;;;;;5049601;28;20451;-53
2023/03/19 01:33:13;;;;;;;2.40;1.17;;;12.50;99.90;;;;;;5050525;28;20868;-51
2023/03/19 01:35:42;;;;;;;1.67;1.00;;;12.50;99.90;;;;;;5055092;28;20441;-55
2023/03/19 01:38:09;;;;;;;2.50;1.00;;;12.40;99.90;;;;;;5056068;28;20955;-55
2023/03/19 01:40:36;;;;;;;1.70;0.90;;;12.40;99.90;;;;;;5046165;28;20448;-55
2023/03/19 01:43:16;;;;;;;2.00;1.00;;;12.40;99.90;;;;;;5054278;28;20424;-51
2023/03/19 01:45:44;;;;;;;1.50;1.00;;;12.30;99.90;;;;;;5054562;28;20428;-52
2023/03/19 01:48:28;;;;;;;1.10;0.73;;;12.20;99.90;;;;;;5110539;27;20657;-54
2023/03/19 01:50:57;;;;;;;0.90;0.50;;;12.40;70.70;;;;;;5109327;28;20472;-53
2023/03/19 01:53:27;;;;;;;1.80;0.60;;;12.70;1.00;;;;;;5112240;28;20828;-53
2023/03/19 01:55:59;;;;;;;0.90;0.60;;;12.90;1.00;;;;;;5112517;28;20466;-54
2023/03/19 01:58:27;;;;;;;0.90;0.52;;;12.90;1.00;;;;;;5109200;28;20446;-53
2023/03/19 02:00:56;;;;;;;1.00;0.65;;;12.80;1.00;;;;;;5109865;28;20520;-54
2023/03/19 02:03:24;;;;;;;1.50;0.60;;;12.80;1.00;;;;;;5111924;28;20417;-51
2023/03/19 02:05:52;;;;;;;1.65;0.60;;;12.80;1.00;;;;;;5111970;28;20413;-55
2023/03/19 02:08:21;;;;;;;1.20;0.50;;;12.80;1.00;;;;;;5105993;28;20932;-55
2023/03/19 02:10:49;;;;;;;2.80;0.70;;;12.80;8.20;;;;;;5110494;28;20709;-53
2023/03/19 02:13:16;;;;;;;0.90;0.60;;;12.70;78.70;;;;;;5110397;28;20709;-54
2023/03/19 02:15:43;;;;;;;1.10;0.60;;;12.70;99.90;;;;;;5110920;28;20559;-54
2023/03/19 02:18:10;;;;;;;1.00;0.60;;;12.80;1.00;;;;;;5107529;28;20529;-56
2023/03/19 02:20:48;;;;;;;2.00;0.60;;;12.70;1.00;;;;;;5110989;28;20457;-52
2023/03/19 02:23:22;;;;;;;1.02;0.60;;;12.60;1.00;;;;;;5109605;28;20907;-51
2023/03/19 02:26:00;;;;;;;1.17;0.70;;;12.50;99.90;;;;;;5109587;28;20575;-53
2023/03/19 02:28:28;;;;;;;0.98;0.60;;;12.30;1.00;;;;;;5109787;28;20516;-50
2023/03/19 02:30:54;;;;;;;1.30;0.60;;;12.20;1.00;;;;;;5110898;28;20857;-54
2023/03/19 02:33:21;;;;;;;1.00;0.60;;;12.00;1.00;;;;;;5111778;28;20863;-54
2023/03/19 02:35:51;;;;;;;0.90;0.60;;;11.80;1.00;;;;;;5106692;28;20461;-51
2023/03/19 02:38:21;;;;;;;1.00;0.60;;;11.70;1.00;;;;;;5110701;28;20520;-52
2023/03/19 02:40:52;;;;;;;0.90;0.60;;;11.60;2.60;;;;;;5112020;28;20425;-50
2023/03/19 02:43:22;;;;;;;0.90;0.60;;;11.60;21.30;;;;;;5110621;28;20808;-50
2023/03/19 02:45:49;;;;;;;1.00;0.70;;;11.60;22.70;;;;;;5105663;28;20527;-52
2023/03/19 02:48:16;;;;;;;1.10;0.70;;;11.50;32.20;;;;;;5111004;28;20476;-54
2023/03/19 02:50:43;;;;;;;1.20;0.70;;;11.40;41.60;;;;;;5111115;28;20425;-53
2023/03/19 02:53:10;;;;;;;0.90;0.68;;;11.30;75.30;;;;;;5110631;28;20848;-53
2023/03/19 02:55:37;;;;;;;0.95;0.75;;;11.30;95.80;;;;;;5106688;28;20417;-54
2023/03/19 02:58:04;;;;;;;0.90;0.60;;;11.30;99.40;;;;;;5107237;28;20457;-55
2023/03/19 03:00:32;;;;;;;1.30;0.60;;;11.30;99.90;;;;;;5096718;28;20414;-55
2023/03/19 03:03:00;;;;;;;1.17;0.70;;;11.10;99.90;;;;;;5094525;28;20465;-49
2023/03/19 03:05:27;;;;;;;1.10;0.80;;;11.00;99.90;;;;;;5096964;28;20448;-55
2023/03/19 03:07:54;;;;;;;1.17;0.70;;;10.90;99.90;;;;;;5096932;28;20946;-51
2023/03/19 03:10:21;;;;;;;1.30;0.60;;;10.90;99.90;;;;;;5096221;28;20442;-54
2023/03/19 03:12:48;;;;;;;1.00;0.70;;;11.10;99.90;;;;;;5091263;28;20438;-55
2023/03/19 03:15:15;;;;;;;1.00;0.70;;;11.10;99.90;;;;;;5096485;28;20508;-54
2023/03/19 03:17:44;;;;;;;1.30;0.70;;;11.30;99.90;;;;;;5095506;28;20524;-53
2023/03/19 03:20:14;;;;;;;1.10;0.70;;;11.30;99.90;;;;;;5095499;28;20424;-53
2023/03/19 03:22:41;;;;;;;0.80;0.70;;;11.30;99.90;;;;;;5090889;28;20532;-53
2023/03/19 03:25:10;;;;;;;1.40;0.70;;;11.30;99.90;;;;;;5096332;28;20507;-55
2023/03/19 03:27:37;;;;;;;1.90;0.70;;;11.30;99.90;;;;;;5097215;28;20868;-53
2023/03/19 03:30:05;;;;;;;1.50;0.80;;;11.20;99.90;;;;;;5092495;28;20418;-54
2023/03/19 03:32:32;;;;;;;1.00;0.70;;;11.20;99.90;;;;;;5094095;28;20433;-55
2023/03/19 03:35:00;;;;;;;1.10;0.80;;;11.20;99.90;;;;;;5096150;28;20487;-55
2023/03/19 03:37:27;;;;;;;1.10;0.70;;;11.20;99.90;;;;;;5095477;28;20422;-53
2023/03/19 03:39:54;;;;;;;1.30;0.82;;;11.20;99.90;;;;;;5090433;28;20471;-51
2023/03/19 03:42:21;;;;;;;1.20;0.90;;;11.20;99.90;;;;;;5095448;28;20524;-55
2023/03/19 03:44:48;;;;;;;1.20;0.80;;;11.20;94.60;;;;;;5095731;28;20426;-54
2023/03/19 03:47:16;;;;;;;1.55;0.82;;;11.20;90.60;;;;;;5095004;28;20472;-55
2023/03/19 03:49:44;;;;;;;1.23;0.80;;;11.20;91.30;;;;;;5092299;28;20430;-49
2023/03/19 03:52:12;;;;;;;1.10;0.80;;;11.30;89.20;;;;;;5095293;28;20739;-55
2023/03/19 03:54:39;;;;;;;1.20;0.80;;;11.30;94.70;;;;;;5096790;28;20453;-54
2023/03/19 03:57:06;;;;;;;1.15;0.80;;;11.20;96.50;;;;;;5095081;28;20425;-54
2023/03/19 03:59:33;;;;;;;1.30;0.80;;;11.10;93.70;;;;;;5092993;28;20465;-53
2023/03/19 04:02:00;;;;;;;1.70;0.90;;;11.10;95.80;;;;;;5095557;28;20845;-54
2023/03/19 04:04:27;;;;;;;1.52;0.80;;;11.10;97.90;;;;;;5096505;28;20417;-53
2023/03/19 04:06:54;;;;;;;2.10;0.80;;;11.00;96.30;;;;;;5093037;28;20438;-55
2023/03/19 04:09:22;;;;;;;1.20;0.75;;;11.00;90.60;;;;;;5093983;28;20457;-52
2023/03/19 04:11:50;;;;;;;1.60;1.10;;;11.00;91.60;;;;;;5095136;28;20464;-54
2023/03/19 04:14:17;;;;;;;1.70;0.80;;;11.10;76.60;;;;;;5095167;28;20428;-54
2023/03/19 04:16:44;;;;;;;0.95;0.70;;;11.00;73.00;;;;;;5087935;28;20441;-51
2023/03/19 04:19:11;;;;;;;0.90;0.70;;;11.00;74.40;;;;;;5093269;28;20516;-53
2023/03/19 04:21:38;;;;;;;1.10;0.80;;;11.00;72.90;;;;;;5095596;28;20501;-55
2023/03/19 04:24:05;;;;;;;1.10;0.70;;;11.00;68.30;;;;;;5095283;28;20414;-56
2023/03/19 04:26:34;;;;;;;1.50;0.70;;;11.00;71.20;;;;;;5088590;28;20470;-55
2023/03/19 04:29:01;;;;;;;1.00;0.70;;;10.90;78.40;;;;;;5094319;28;20429;-54
2023/03/19 04:31:28;;;;;;;1.08;0.70;;;10.90;79.60;;;;;;5096133;28;20465;-54
2023/03/19 04:33:55;;;;;;;0.93;0.70;;;10.90;73.90;;;;;;5095346;28;20418;-55
2023/03/19 04:36:22;;;;;;;1.70;0.80;;;10.90;67.10;;;;;;5092737;28;20941;-53
2023/03/19 04:38:49;;;;;;;1.15;0.70;;;10.90;63.30;;;;;;5095759;28;20449;-55
2023/03/19 04:41:16;;;;;;;1.00;0.70;;;10.90;56.60;;;;;;5096164;28;20508;-56
2023/03/19 04:43:44;;;;;;;0.90;0.70;;;10.90;51.00;;;;;;5092129;28;20522;-54
2023/03/19 04:46:11;;;;;;;1.10;0.70;;;10.90;51.00;;;;;;5093336;28;20971;-53
2023/03/19 04:48:38;;;;;;;0.80;0.60;;;10.90;54.50;;;;;;5095257;28;20929;-53
2023/03/19 04:51:07;;;;;;;1.00;0.70;;;10.90;48.30;;;;;;5096000;28;20679;-54
2023/03/19 04:53:34;;;;;;;0.95;0.70;;;10.90;58.80;;;;;;5090783;28;20445;-52
2023/03/19 04:56:01;;;;;;;1.30;0.70;;;10.80;55.70;;;;;;5095229;28;20695;-55
2023/03/19 04:58:28;;;;;;;0.90;0.70;;;10.80;52.70;;;;;;5094706;28;20770;-55
2023/03/19 05:00:56;;;;;;;1.10;0.80;;;10.80;67.10;;;;;;5094287;28;20465;-55
2023/03/19 05:03:23;;;;;;;2.15;0.80;;;10.70;58.00;;;;;;5090556;28;20768;-53
2023/03/19 05:05:50;;;;;;;1.00;0.70;;;10.70;88.60;;;;;;5093389;28;20457;-55
2023/03/19 05:08:17;;;;;;;1.20;0.70;;;10.60;90.10;;;;;;5093717;28;20522;-55
2023/03/19 05:10:44;;;;;;;1.20;0.70;;;10.60;99.90;;;;;;5094066;28;20480;-52
2023/03/19 05:13:11;;;;;;;1.23;0.80;;;10.50;99.90;;;;;;5087607;28;20438;-54
2023/03/19 05:15:38;;;;;;;1.05;0.70;;;10.50;99.90;;;;;;5095008;28;20433;-54
2023/03/19 05:18:07;;;;;;;1.50;0.82;;;10.50;99.90;;;;;;5093717;28;20422;-53
2023/03/19 05:20:34;;;;;;;1.80;0.75;;;10.50;99.90;;;;;;5092050;28;20522;-52
2023/03/19 05:23:01;;;;;;;1.60;0.90;;;10.50;99.90;;;;;;5093281;28;20513;-50
2023/03/19 05:25:28;;;;;;;1.90;0.82;;;10.40;99.90;;;;;;5094356;28;20421;-54
2023/03/19 05:27:56;;;;;;;1.10;0.70;;;10.40;99.90;;;;;;5094040;28;20876;-52
2023/03/19 05:30:23;;;;;;;1.10;0.80;;;10.40;99.90;;;;;;5091385;28;20911;-52
2023/03/19 05:32:50;;;;;;;0.98;0.80;;;10.40;99.90;;;;;;5094803;28;20422;-53
2023/03/19 05:35:18;;;;;;;1.13;0.90;;;10.40;99.90;;;;;;5093666;28;20461;-54
2023/03/19 05:37:45;;;;;;;1.50;0.70;;;10.30;99.90;;;;;;5094767;28;20422;-53
2023/03/19 05:40:13;;;;;;;1.10;0.90;;;10.30;98.30;;;;;;5090706;28;20434;-52
2023/03/19 05:42:40;;;;;;;1.10;0.70;;;10.30;93.30;;;;;;5094442;28;20710;-54
2023/03/19 05:45:07;;;;;;;1.50;0.80;;;10.40;80.00;;;;;;5094375;28;20422;-54
2023/03/19 05:47:34;;;;;;;1.50;0.70;;;10.40;72.00;;;;;;5094009;28;20434;-54
2023/03/19 05:50:01;;;;;;;1.50;0.80;;;10.40;86.90;;;;;;5073408;28;20459;-50
2023/03/19 05:52:30;;;;;;;1.20;0.73;;;10.40;72.70;;;;;;5074472;28;20426;-52
2023/03/19 05:54:57;;;;;;;1.08;0.70;;;10.40;49.00;;;;;;5074387;28;20510;-54
2023/03/19 05:57:23;;;;;;;1.92;0.70;;;10.40;41.40;;;;;;5077331;28;20812;-49
2023/03/19 05:59:50;;;;;;;0.90;0.70;;;10.40;49.00;;;;;;5073396;28;20907;-51
2023/03/19 06:02:17;;;;;;;1.58;0.60;;;10.40;45.90;;;;;;5073438;28;20505;-49
2023/03/19 06:04:44;;;;;;;1.00;0.75;;;10.40;55.00;;;;;;5073794;28;20455;-52
2023/03/19 06:07:12;;;;;;;1.60;0.70;;;10.40;40.60;;;;;;5078980;28;20437;-50
2023/03/19 06:09:41;;;;;;;1.20;0.70;;;10.50;21.80;;;;;;5093039;28;20413;-54
2023/03/19 06:12:08;;;;;;;1.30;0.70;;;10.50;30.50;;;;;;5093884;28;20433;-51
2023/03/19 06:14:35;;;;;;;1.10;0.70;;;10.50;23.60;;;;;;5094122;28;20504;-53
2023/03/19 06:17:02;;;;;;;1.92;0.80;;;10.50;32.10;;;;;;5090868;28;20446;-52
2023/03/19 06:19:29;;;;;;;1.00;0.75;;;10.50;26.30;;;;;;5094889;28;20417;-52
2023/03/19 06:21:56;;;;;;;0.90;0.70;;;10.50;30.80;;;;;;5094141;28;20526;-54
2023/03/19 06:24:23;;;;;;;1.10;0.70;;;10.50;17.10;;;;;;5091739;28;20504;-51
2023/03/19 06:26:51;;;;;;;0.98;0.70;;;10.60;1.00;;;;;;5092843;28;20524;-53
2023/03/19 06:29:18;;;;;;;1.17;0.60;;;10.60;1.00;;;;;;5094271;28;20737;-50
2023/03/19 06:31:45;;;;;;;1.00;0.60;;;10.70;1.00;;;;;;5093265;28;20542;-52
2023/03/19 06:34:12;;;;;;;0.95;0.70;;;10.70;1.00;;;;;;5090060;28;20828;-54
2023/03/19 06:36:39;;;;;;;1.10;0.70;;;10.70;1.00;;;;;;5097889;28;20710;-53
2023/03/19 06:39:06;;;;;;;2.00;0.70;;;10.70;1.00;;;;;;5097281;28;20499;-52
2023/03/19 06:41:33;;;;;;;1.13;0.60;;;10.80;1.00;;;;;;5098101;28;20836;-53
2023/03/19 06:44:01;;;;;;;1.52;0.68;;;10.90;1.00;;;;;;5092398;28;21098;-51
2023/03/19 06:46:28;;;;;;;1.17;0.70;;;10.90;1.00;;;;;;5098116;28;20520;-51
2023/03/19 06:48:55;;;;;;;1.20;0.60;;;10.90;1.00;;;;;;5096848;28;20520;-53
2023/03/19 06:51:22;;;;;;;1.20;0.60;;;10.90;1.00;;;;;;5097701;28;20434;-51
2023/03/19 06:53:49;;;;;;;1.40;0.80;;;11.00;1.00;;;;;;5090231;28;20471;-52
2023/03/19 06:56:16;;;;;;;1.10;0.60;;;11.00;1.00;;;;;;5097504;28;20421;-54
2023/03/19 06:58:43;;;;;;;1.20;0.60;;;11.00;1.00;;;;;;5096455;28;20456;-52
2023/03/19 07:01:11;;;;;;;1.60;0.70;;;10.90;1.00;;;;;;5095590;28;20532;-53
2023/03/19 07:03:38;;;;;;;2.55;0.60;;;11.00;1.00;;;;;;5094650;28;20514;-53
2023/03/19 07:06:06;;;;;;;1.10;0.60;;;11.10;1.00;;;;;;5097427;28;20780;-53
2023/03/19 07:08:33;;;;;;;1.30;0.70;;;11.10;1.00;;;;;;5096585;28;20436;-54
2023/03/19 07:11:04;;;;;;;0.80;0.60;;;11.20;1.00;;;;;;5092578;28;20476;-54
2023/03/19 07:13:31;;;;;;;0.90;0.60;;;11.30;1.00;;;;;;5096947;28;20464;-53
2023/03/19 07:15:58;;;;;;;1.50;0.70;;;11.30;1.00;;;;;;5097036;28;20832;-57
2023/03/19 07:18:27;;;;;;;1.20;0.70;;;11.30;1.00;;;;;;5092610;28;20520;-49
2023/03/19 07:20:53;;;;;;;1.20;0.60;;;11.30;1.00;;;;;;5096082;28;20418;-54
2023/03/19 07:23:20;;;;;;;1.30;0.70;;;11.40;1.00;;;;;;5096694;28;20454;-52
2023/03/19 07:25:47;;;;;;;0.90;0.60;;;11.40;1.00;;;;;;5096884;28;20454;-55
2023/03/19 07:28:15;;;;;;;1.10;0.60;;;11.50;1.00;;;;;;5091793;28;20837;-55
2023/03/19 07:30:42;;;;;;;2.50;0.70;;;11.40;1.00;;;;;;5097126;28;20513;-53
2023/03/19 07:33:09;;;;;;;1.10;0.70;;;11.50;1.00;;;;;;5097242;28;20495;-55
2023/03/19 07:35:38;;;;;;;1.00;0.63;;;11.50;1.00;;;;;;5095002;28;20434;-51
2023/03/19 07:38:04;;;;;;;0.90;0.70;;;11.50;1.00;;;;;;5096207;28;20465;-53
2023/03/19 07:40:31;;;;;;;0.80;0.60;;;11.60;1.00;;;;;;5096850;28;20487;-53
2023/03/19 07:42:58;;;;;;;1.20;0.60;;;11.60;1.00;;;;;;5097451;28;20516;-55
2023/03/19 07:45:25;;;;;;;1.60;0.60;;;11.70;1.00;;;;;;5090446;28;20520;-55
2023/03/19 07:47:52;;;;;;;0.95;0.60;;;11.60;1.00;;;;;;5092756;28;20533;-56
2023/03/19 07:50:19;;;;;;;0.80;0.60;;;11.60;1.00;;;;;;5095793;28;20465;-49
2023/03/19 07:52:48;;;;;;;1.50;0.60;;;11.60;1.00;;;;;;5096431;28;20504;-55
2023/03/19 07:55:16;;;;;;;1.90;0.70;;;11.70;1.00;;;;;;5096281;28;20452;-55
2023/03/19 07:57:43;;;;;;;1.00;0.70;;;11.70;1.00;;;;;;5091803;28;20520;-54
2023/03/19 08:00:11;;;;;;;0.90;0.70;;;11.60;1.00;;;;;;5095377;28;20487;-56
2023/03/19 08:02:38;;;;;;;0.98;0.60;;;11.60;1.00;;;;;;5096088;28;20437;-54
2023/03/19 08:05:06;;;;;;;1.00;0.70;;;11.60;1.00;;;;;;5093413;28;20520;-55
2023/03/19 08:07:33;;;;;;;1.15;0.60;;;11.70;1.00;;;;;;5094694;28;20448;-55
2023/03/19 08:10:02;;;;;;;0.90;0.50;;;11.70;1.00;;;;;;5095033;28;20422;-54
2023/03/19 08:12:30;;;;;;;2.10;0.60;;;11.70;1.00;;;;;;5096576;28;20437;-54
2023/03/19 08:14:57;;;;;;;0.90;0.60;;;11.80;1.00;;;;;;5088957;28;20525;-53
2023/03/19 08:17:24;;;;;;;1.10;0.70;;;11.90;1.00;;;;;;5096391;28;20429;-59
2023/03/19 08:19:51;;;;;;;1.20;0.60;;;12.00;1.00;;;;;;5096436;28;20512;-54
2023/03/19 08:22:18;;;;;;;1.00;0.50;;;12.10;1.00;;;;;;5095758;28;20892;-52
2023/03/19 08:24:45;;;;;;;1.00;0.55;;;12.20;99.90;;;;;;5092026;28;20830;-51
2023/03/19 08:27:13;;;;;;;0.90;0.70;;;12.30;1.00;;;;;;5095727;28;21152;-54
2023/03/19 08:29:40;;;;;;;1.00;0.60;;;12.40;99.90;;;;;;5094223;28;20513;-55
2023/03/19 08:32:07;;;;;;;1.90;0.60;;;12.50;99.90;;;;;;5093626;28;20457;-54
2023/03/19 08:34:34;;;;;;;1.50;0.60;;;12.50;99.90;;;;;;5092516;28;20461;-55
2023/03/19 08:37:02;;;;;;;0.80;0.60;;;12.40;99.90;;;;;;5094618;28;20430;-54
2023/03/19 08:39:29;;;;;;;0.90;0.60;;;12.50;99.90;;;;;;5093523;28;20468;-56
2023/03/19 08:41:56;;;;;;;1.57;0.70;;;12.50;99.90;;;;;;5089228;28;20914;-54
2023/03/19 08:44:24;;;;;;;0.73;0.50;;;12.60;99.90;;;;;;5095049;28;20922;-55
2023/03/19 08:46:51;;;;;;;0.80;0.57;;;12.70;99.90;;;;;;5094305;28;20429;-54
2023/03/19 08:49:18;;;;;;;0.90;0.50;;;12.80;99.90;;;;;;5092619;28;20521;-56
2023/03/19 08:51:45;;;;;;;1.50;0.60;;;13.00;99.90;;;;;;5090490;28;20473;-56
2023/03/19 08:54:12;;;;;;;1.00;0.60;;;13.00;1.00;;;;;;5093980;28;20449;-51
2023/03/19 08:56:40;;;;;;;1.30;0.60;;;13.00;99.90;;;;;;5093427;28;20426;-56
2023/03/19 08:59:07;;;;;;;1.25;0.60;;;12.90;99.90;;;;;;5094983;28;20433;-52
2023/03/19 09:01:36;;;;;;;1.00;0.60;;;12.80;99.90;;;;;;5092120;28;20524;-54
2023/03/19 09:04:03;;;;;;;0.80;0.60;;;12.80;99.90;;;;;;5095068;28;20709;-56
2023/03/19 09:06:30;;;;;;;1.10;0.70;;;12.80;99.90;;;;;;5094316;28;20453;-53
2023/03/19 09:08:57;;;;;;;1.08;0.68;;;12.90;99.90;;;;;;5092896;28;20512;-55
2023/03/19 09:11:24;;;;;;;0.80;0.60;;;13.00;99.90;;;;;;5093415;28;20548;-55
2023/03/19 09:13:51;;;;;;;1.00;0.65;;;13.10;99.90;;;;;;5092232;28;20471;-56
2023/03/19 09:16:18;;;;;;;0.90;0.60;;;13.20;99.90;;;;;;5092859;28;20516;-55
2023/03/19 09:18:46;;;;;;;1.40;0.70;;;13.40;73.20;;;;;;5090218;28;20726;-56
2023/03/19 09:21:13;;;;;;;1.00;0.60;;;13.60;1.00;;;;;;5094769;28;20519;-56
2023/03/19 09:23:40;;;;;;;2.15;0.68;;;13.70;1.00;;;;;;5092400;28;20470;-53
2023/03/19 09:26:07;;;;;;;1.10;0.60;;;13.80;1.00;;;;;;5092270;28;20517;-55
2023/03/19 09:28:35;;;;;;;1.70;0.60;;;14.00;5.30;;;;;;5088814;28;20467;-56
2023/03/19 09:31:06;;;;;;;2.30;0.60;;;14.10;99.90;;;;;;5093345;28;20826;-54
2023/03/19 09:33:33;;;;;;;1.00;0.70;;;14.10;99.90;;;;;;5092923;28;20501;-54
2023/03/19 09:36:01;;;;;;;1.15;0.70;;;14.30;99.90;;;;;;5092973;28;20884;-56
2023/03/19 09:38:28;;;;;;;1.05;0.50;;;14.50;56.30;;;;;;5089989;28;20470;-55
2023/03/19 09:41:07;;;;;;;0.95;0.60;;;14.50;1.00;;;;;;5094505;28;20417;-53
2023/03/19 09:43:45;;;;;;;0.75;0.50;;;14.60;1.00;;;;;;5094317;28;20553;-53
2023/03/19 09:46:17;;;;;;;0.90;0.50;;;14.60;1.00;;;;;;5091051;28;20516;-56
2023/03/19 09:48:49;;;;;;;1.10;0.52;;;14.50;1.00;;;;;;5093532;28;20430;-56
2023/03/19 09:51:23;;;;;;;0.90;0.50;;;14.50;99.90;;;;;;5092999;28;20524;-56
2023/03/19 09:53:56;;;;;;;1.45;0.47;;;14.60;1.00;;;;;;5090827;28;20453;-56
2023/03/19 09:56:25;;;;;;;1.10;0.50;;;14.70;1.00;;;;;;5088321;28;20438;-54
2023/03/19 09:58:52;;;;;;;1.50;0.50;;;14.90;1.00;;;;;;5090947;28;20424;-57
2023/03/19 10:01:28;;;;;;;0.80;0.60;;;15.10;1.00;;;;;;5092297;28;20958;-55
2023/03/19 10:04:22;;;;;;;0.70;0.40;;;15.40;1.00;;;;;;5092425;28;20781;-55
2023/03/19 10:06:55;;;;;;;0.80;0.50;;;15.60;99.90;;;;;;5075285;28;21126;-54
2023/03/19 10:09:42;;;;;;;0.70;0.50;;;15.90;99.90;;;;;;5094622;28;20845;-55
2023/03/19 10:12:19;;;;;;;0.80;0.50;;;15.80;99.90;;;;;;5096047;28;20468;-56
2023/03/19 10:15:03;;;;;;;0.80;0.50;;;15.90;94.30;;;;;;5087061;28;20465;-57
2023/03/19 10:17:34;;;;;;;1.00;0.50;;;16.10;95.00;;;;;;5096491;28;20434;-57
2023/03/19 10:20:06;;;;;;;0.60;0.40;;;16.10;60.70;;;;;;5098130;28;20472;-55
2023/03/19 10:22:38;;;;;;;1.40;0.50;;;16.10;92.90;;;;;;5094125;28;20520;-54
2023/03/19 10:25:10;;;;;;;0.70;0.50;;;16.10;46.10;;;;;;5095999;28;20542;-57
2023/03/19 10:27:38;;;;;;;0.95;0.50;;;16.10;55.70;;;;;;5096696;28;20426;-57
2023/03/19 10:30:14;;;;;;;0.90;0.50;;;16.20;82.40;;;;;;5096102;28;20517;-56
2023/03/19 10:32:43;;;;;;;1.20;0.50;;;16.30;23.90;;;;;;5093755;28;20433;-58
2023/03/19 10:35:18;;;;;;;0.77;0.50;;;16.20;1.00;;;;;;5097733;28;20418;-55
2023/03/19 10:37:48;;;;;;;0.60;0.40;;;16.30;1.00;;;;;;5096674;28;20512;-54
2023/03/19 10:40:24;;;;;;;1.25;0.50;;;16.50;4.30;;;;;;5096603;28;20452;-58
2023/03/19 10:43:04;;;;;;;0.70;0.47;;;16.80;1.00;;;;;;5090537;28;20437;-56
2023/03/19 10:45:32;;;;;;;0.60;0.40;;;16.80;1.00;;;;;;5092325;28;20932;-54
2023/03/19 10:48:01;;;;;;;1.35;0.50;;;16.90;1.00;;;;;;5081504;28;20437;-56
2023/03/19 10:50:32;;;;;;;0.82;0.43;;;17.40;1.00;;;;;;5092270;28;20521;-52
2023/03/19 10:53:06;;;;;;;1.10;0.60;;;17.70;1.00;;;;;;5094702;28;20516;-57
2023/03/19 10:55:33;;;;;;;1.60;0.50;;;17.90;1.00;;;;;;5082513;28;20427;-56
2023/03/19 10:58:06;;;;;;;0.70;0.50;;;18.10;1.00;;;;;;5092175;28;20506;-56
2023/03/19 11:00:34;;;;;;;0.70;0.50;;;18.20;1.00;;;;;;5093533;28;20434;-55
2023/03/19 11:03:03;;;;;;;0.70;0.40;;;18.40;1.00;;;;;;5095186;28;20426;-56
2023/03/19 11:05:32;;;;;;;0.68;0.50;;;18.20;1.00;;;;;;5095501;28;20461;-53
2023/03/19 11:08:03;;;;;;;1.20;0.50;;;18.20;1.00;;;;;;5095558;28;20426;-55
2023/03/19 11:10:33;;;;;;;1.00;0.50;;;18.10;1.00;;;;;;5093465;28;20430;-55
2023/03/19 11:13:03;;;;;;;1.10;0.40;;;17.90;1.00;;;;;;5096299;28;20850;-55
2023/03/19 11:15:36;;;;;;;0.90;0.40;;;17.70;1.00;;;;;;5093628;28;20502;-57
2023/03/19 11:18:07;;;;;;;0.60;0.40;;;17.70;1.00;;;;;;5093477;28;20441;-58
2023/03/19 11:20:35;;;;;;;0.93;0.47;;;17.80;1.00;;;;;;5094781;28;21072;-59
2023/03/19 11:23:10;;;;;;;0.75;0.50;;;17.60;1.00;;;;;;5097327;28;20434;-58
2023/03/19 11:25:40;;;;;;;0.75;0.50;;;17.50;1.00;;;;;;5094400;28;20425;-59
2023/03/19 11:28:09;;;;;;;0.93;0.40;;;17.70;1.00;;;;;;5092419;28;20536;-59
2023/03/19 11:30:45;;;;;;;0.70;0.50;;;17.80;1.00;;;;;;5094719;28;20524;-58
2023/03/19 11:33:32;;;;;;;1.83;0.50;;;17.70;1.00;;;;;;5094736;28;20461;-59
2023/03/19 11:36:05;;;;;;;1.20;0.50;;;17.70;1.00;;;;;;5090156;28;20517;-58
2023/03/19 11:38:40;;;;;;;0.87;0.50;;;17.80;1.00;;;;;;5093323;28;20555;-58
2023/03/19 11:41:18;;;;;;;0.70;0.50;;;18.10;1.00;;;;;;5095049;28;20872;-56
2023/03/19 11:43:58;;;;;;;1.10;0.50;;;18.00;1.00;;;;;;5096661;28;20537;-56
2023/03/19 11:46:42;;;;;;;1.20;0.60;;;17.90;1.00;;;;;;5091004;28;20516;-55
2023/03/19 11:49:36;;;;;;;1.00;0.60;;;18.00;1.00;;;;;;5095467;28;20468;-55
2023/03/19 11:52:12;;;;;;;0.80;0.50;;;17.60;1.00;;;;;;5095481;28;20860;-55
2023/03/19 11:54:51;;;;;;;0.77;0.50;;;17.90;1.00;;;;;;5089970;28;20526;-56
2023/03/19 11:57:28;;;;;;;1.40;0.60;;;17.90;1.00;;;;;;5095656;28;20449;-56
2023/03/19 12:00:15;;;;;;;0.90;0.50;;;17.80;1.00;;;;;;5096589;28;20414;-55
2023/03/19 12:03:12;;;;;;;1.95;0.52;;;17.70;1.00;;;;;;5092616;28;20444;-57
2023/03/19 12:05:51;;;;;;;1.70;1.10;;;17.50;1.00;;;;;;5089201;28;20457;-55
2023/03/19 12:08:31;;;;;;;0.90;0.50;;;17.50;1.00;;;;;;5096290;28;20510;-56
2023/03/19 12:11:17;;;;;;;0.60;0.45;;;17.90;1.00;;;;;;5095216;28;20421;-56
2023/03/19 12:14:02;;;;;;;0.80;0.50;;;18.40;1.00;;;;;;5090743;28;20434;-56
2023/03/19 12:16:38;;;;;;;0.80;0.50;;;18.80;1.00;;;;;;5094358;28;20479;-56
2023/03/19 12:19:27;;;;;;;0.60;0.40;;;18.60;1.00;;;;;;5096394;28;20526;-56
2023/03/19 12:22:05;;;;;;;2.10;0.60;;;18.20;1.00;;;;;;5091347;28;20804;-56
2023/03/19 12:24:44;;;;;;;1.37;0.60;;;17.90;1.00;;;;;;5094297;28;20540;-56
2023/03/19 12:27:23;;;;;;;1.00;0.60;;;17.80;1.00;;;;;;5094850;28;20801;-57
2023/03/19 12:29:57;;;;;;;0.60;0.50;;;17.90;1.00;;;;;;5093944;28;20434;-57
2023/03/19 12:32:36;;;;;;;1.58;0.50;;;17.80;1.00;;;;;;5087795;28;20446;-57
2023/03/19 12:35:11;;;;;;;0.70;0.50;;;17.90;1.00;;;;;;5094168;28;20422;-55
2023/03/19 12:37:45;;;;;;;1.45;0.50;;;18.00;1.00;;;;;;5094285;28;20432;-57
2023/03/19 12:40:22;;;;;;;0.90;0.47;;;18.00;1.00;;;;;;5092370;28;20795;-57
2023/03/19 12:42:50;;;;;;;0.98;0.50;;;18.00;1.00;;;;;;5094149;28;20489;-55
2023/03/19 12:45:27;;;;;;;0.63;0.40;;;17.60;1.00;;;;;;5095015;28;20718;-57
2023/03/19 12:47:58;;;;;;;1.10;0.52;;;17.40;1.00;;;;;;5092652;28;20438;-57
2023/03/19 12:50:26;;;;;;;1.10;0.50;;;17.50;1.00;;;;;;5087250;28;20916;-53
2023/03/19 12:52:57;;;;;;;1.60;0.50;;;17.40;1.00;;;;;;5092657;28;20606;-54
2023/03/19 12:55:35;;;;;;;1.55;0.60;;;17.40;1.00;;;;;;5094013;28;20514;-55
2023/03/19 12:58:06;;;;;;;0.90;0.50;;;17.40;1.00;;;;;;5093259;28;20425;-56
2023/03/19 13:00:36;;;;;;;1.20;0.50;;;17.40;1.00;;;;;;5091944;28;20409;-55
2023/03/19 13:03:10;;;;;;;0.80;0.50;;;17.10;1.00;;;;;;5093324;28;20434;-55